sensor_id;sensor_type;location;lat;lon;timestamp;pressure;altitude;pressure_sealevel;temperature;humidity
71805;BME280;59654;52.216;5.616;2023-04-05T00:00:11;102343.03;;;2.05;69.78
71805;BME280;59654;52.216;5.616;2023-04-05T00:00:43;102342.19;;;2.06;70.44
71805;BME280;59654;52.216;5.616;2023-04-05T00:01:14;102337.78;;;2.05;70.22
71805;BME280;59654;52.216;5.616;2023-04-05T00:01:45;102343.91;;;2.04;70.05
71805;BME280;59654;52.216;5.616;2023-04-05T00:02:19;102346.53;;;2.04;70.06
71805;BME280;59654;52.216;5.616;2023-04-05T00:02:51;102342.16;;;2.05;70.35
71805;BME280;59654;52.216;5.616;2023-04-05T00:03:22;102349.16;;;2.04;70.00
71805;BME280;59654;52.216;5.616;2023-04-05T00:03:54;102342.13;;;2.02;70.77
71805;BME280;59654;52.216;5.616;2023-04-05T00:04:27;102344.75;;;2.02;71.03
71805;BME280;59654;52.216;5.616;2023-04-05T00:04:57;102340.34;;;2.01;71.47
71805;BME280;59654;52.216;5.616;2023-04-05T00:05:30;102345.59;;;2.01;71.31
71805;BME280;59654;52.216;5.616;2023-04-05T00:06:01;102344.72;;;2.00;71.87
71805;BME280;59654;52.216;5.616;2023-04-05T00:06:35;102348.19;;;1.99;71.22
71805;BME280;59654;52.216;5.616;2023-04-05T00:07:07;102348.16;;;1.98;71.51
71805;BME280;59654;52.216;5.616;2023-04-05T00:07:37;102350.84;;;1.99;71.59
71805;BME280;59654;52.216;5.616;2023-04-05T00:08:08;102338.53;;;1.98;71.82
71805;BME280;59654;52.216;5.616;2023-04-05T00:08:42;102347.31;;;1.99;71.82
71805;BME280;59654;52.216;5.616;2023-04-05T00:09:19;102342.94;;;1.99;71.29
71805;BME280;59654;52.216;5.616;2023-04-05T00:09:50;102342.06;;;1.99;72.15
71805;BME280;59654;52.216;5.616;2023-04-05T00:10:21;102341.16;;;1.98;71.57
71805;BME280;59654;52.216;5.616;2023-04-05T00:10:52;102343.75;;;1.97;71.11
71805;BME280;59654;52.216;5.616;2023-04-05T00:11:27;102335.88;;;1.97;70.60
71805;BME280;59654;52.216;5.616;2023-04-05T00:11:59;102334.97;;;1.96;71.51
71805;BME280;59654;52.216;5.616;2023-04-05T00:12:30;102333.25;;;1.97;71.16
71805;BME280;59654;52.216;5.616;2023-04-05T00:13:01;102336.75;;;1.97;71.49
71805;BME280;59654;52.216;5.616;2023-04-05T00:13:31;102336.72;;;1.96;71.67
71805;BME280;59654;52.216;5.616;2023-04-05T00:14:03;102334.97;;;1.96;71.68
71805;BME280;59654;52.216;5.616;2023-04-05T00:14:34;102339.38;;;1.97;71.29
71805;BME280;59654;52.216;5.616;2023-04-05T00:15:05;102338.47;;;1.95;72.32
71805;BME280;59654;52.216;5.616;2023-04-05T00:15:36;102337.56;;;1.95;71.85
71805;BME280;59654;52.216;5.616;2023-04-05T00:16:08;102337.53;;;1.93;72.77
71805;BME280;59654;52.216;5.616;2023-04-05T00:16:38;102341.91;;;1.92;72.52
71805;BME280;59654;52.216;5.616;2023-04-05T00:17:10;102340.16;;;1.93;71.95
71805;BME280;59654;52.216;5.616;2023-04-05T00:17:41;102338.44;;;1.93;71.52
71805;BME280;59654;52.216;5.616;2023-04-05T00:18:12;102335.81;;;1.93;71.67
71805;BME280;59654;52.216;5.616;2023-04-05T00:18:51;102339.31;;;1.94;72.35
71805;BME280;59654;52.216;5.616;2023-04-05T00:19:22;102333.13;;;1.92;72.08
71805;BME280;59654;52.216;5.616;2023-04-05T00:19:54;102337.50;;;1.91;71.75
71805;BME280;59654;52.216;5.616;2023-04-05T00:20:27;102332.25;;;1.91;71.17
71805;BME280;59654;52.216;5.616;2023-04-05T00:20:59;102340.16;;;1.93;70.63
71805;BME280;59654;52.216;5.616;2023-04-05T00:21:30;102341.03;;;1.92;71.23
71805;BME280;59654;52.216;5.616;2023-04-05T00:22:03;102337.47;;;1.90;72.13
71805;BME280;59654;52.216;5.616;2023-04-05T00:22:34;102341.88;;;1.91;72.05
71805;BME280;59654;52.216;5.616;2023-04-05T00:23:06;102340.94;;;1.89;72.40
71805;BME280;59654;52.216;5.616;2023-04-05T00:23:40;102336.53;;;1.88;72.29
71805;BME280;59654;52.216;5.616;2023-04-05T00:24:11;102335.66;;;1.87;72.79
71805;BME280;59654;52.216;5.616;2023-04-05T00:24:45;102334.75;;;1.85;72.76
71805;BME280;59654;52.216;5.616;2023-04-05T00:25:16;102338.25;;;1.84;72.34
71805;BME280;59654;52.216;5.616;2023-04-05T00:25:47;102338.25;;;1.84;72.08
71805;BME280;59654;52.216;5.616;2023-04-05T00:26:19;102339.06;;;1.82;71.84
71805;BME280;59654;52.216;5.616;2023-04-05T00:26:56;102333.72;;;1.79;70.88
71805;BME280;59654;52.216;5.616;2023-04-05T00:27:27;102336.31;;;1.77;71.84
71805;BME280;59654;52.216;5.616;2023-04-05T00:27:59;102335.44;;;1.77;71.50
71805;BME280;59654;52.216;5.616;2023-04-05T00:28:30;102329.28;;;1.76;71.35
71805;BME280;59654;52.216;5.616;2023-04-05T00:29:01;102334.50;;;1.75;72.77
71805;BME280;59654;52.216;5.616;2023-04-05T00:29:32;102330.91;;;1.71;73.17
71805;BME280;59654;52.216;5.616;2023-04-05T00:30:04;102330.91;;;1.70;72.92
71805;BME280;59654;52.216;5.616;2023-04-05T00:30:35;102330.03;;;1.69;73.79
71805;BME280;59654;52.216;5.616;2023-04-05T00:31:06;102333.50;;;1.68;73.68
71805;BME280;59654;52.216;5.616;2023-04-05T00:31:37;102334.28;;;1.64;73.90
71805;BME280;59654;52.216;5.616;2023-04-05T00:32:08;102324.63;;;1.63;73.50
71805;BME280;59654;52.216;5.616;2023-04-05T00:32:39;102329.81;;;1.60;73.40
71805;BME280;59654;52.216;5.616;2023-04-05T00:33:11;102331.59;;;1.61;72.83
71805;BME280;59654;52.216;5.616;2023-04-05T00:33:44;102335.91;;;1.59;72.72
71805;BME280;59654;52.216;5.616;2023-04-05T00:34:15;102331.50;;;1.58;72.18
71805;BME280;59654;52.216;5.616;2023-04-05T00:34:46;102326.25;;;1.58;73.11
71805;BME280;59654;52.216;5.616;2023-04-05T00:35:17;102335.03;;;1.58;73.13
71805;BME280;59654;52.216;5.616;2023-04-05T00:35:48;102326.22;;;1.56;73.25
71805;BME280;59654;52.216;5.616;2023-04-05T00:36:19;102341.94;;;1.55;73.27
71805;BME280;59654;52.216;5.616;2023-04-05T00:36:50;102331.38;;;1.52;72.86
71805;BME280;59654;52.216;5.616;2023-04-05T00:37:21;102340.97;;;1.50;73.49
71805;BME280;59654;52.216;5.616;2023-04-05T00:37:52;102333.09;;;1.50;74.26
71805;BME280;59654;52.216;5.616;2023-04-05T00:38:24;102335.63;;;1.47;74.30
71805;BME280;59654;52.216;5.616;2023-04-05T00:38:55;102341.75;;;1.46;74.06
71805;BME280;59654;52.216;5.616;2023-04-05T00:39:26;102332.09;;;1.45;73.73
71805;BME280;59654;52.216;5.616;2023-04-05T00:39:57;102334.63;;;1.42;72.80
71805;BME280;59654;52.216;5.616;2023-04-05T00:40:27;102331.09;;;1.40;72.84
71805;BME280;59654;52.216;5.616;2023-04-05T00:40:58;102338.06;;;1.39;73.32
71805;BME280;59654;52.216;5.616;2023-04-05T00:41:29;102331.06;;;1.38;73.54
71805;BME280;59654;52.216;5.616;2023-04-05T00:42:03;102343.34;;;1.39;73.78
71805;BME280;59654;52.216;5.616;2023-04-05T00:42:35;102331.09;;;1.40;73.56
71805;BME280;59654;52.216;5.616;2023-04-05T00:43:06;102330.19;;;1.39;73.59
71805;BME280;59654;52.216;5.616;2023-04-05T00:43:37;102335.44;;;1.38;74.07
71805;BME280;59654;52.216;5.616;2023-04-05T00:44:08;102331.03;;;1.37;74.43
71805;BME280;59654;52.216;5.616;2023-04-05T00:44:39;102332.75;;;1.35;73.68
71805;BME280;59654;52.216;5.616;2023-04-05T00:45:12;102337.16;;;1.36;73.25
71805;BME280;59654;52.216;5.616;2023-04-05T00:45:43;102331.88;;;1.36;73.10
71805;BME280;59654;52.216;5.616;2023-04-05T00:46:14;102331.88;;;1.36;73.10
71805;BME280;59654;52.216;5.616;2023-04-05T00:46:46;102333.59;;;1.34;72.52
71805;BME280;59654;52.216;5.616;2023-04-05T00:47:16;102326.56;;;1.33;72.59
71805;BME280;59654;52.216;5.616;2023-04-05T00:47:47;102329.16;;;1.31;72.90
71805;BME280;59654;52.216;5.616;2023-04-05T00:48:18;102333.47;;;1.29;73.01
71805;BME280;59654;52.216;5.616;2023-04-05T00:48:49;102331.66;;;1.27;73.11
71805;BME280;59654;52.216;5.616;2023-04-05T00:49:20;102328.94;;;1.23;73.82
71805;BME280;59654;52.216;5.616;2023-04-05T00:49:52;102331.56;;;1.23;73.32
71805;BME280;59654;52.216;5.616;2023-04-05T00:50:23;102317.47;;;1.18;73.51
71805;BME280;59654;52.216;5.616;2023-04-05T00:50:56;102327.94;;;1.17;73.39
71805;BME280;59654;52.216;5.616;2023-04-05T00:51:30;102319.97;;;1.14;73.20
71805;BME280;59654;52.216;5.616;2023-04-05T00:52:04;102320.78;;;1.11;73.61
71805;BME280;59654;52.216;5.616;2023-04-05T00:52:36;102319.81;;;1.08;73.17
71805;BME280;59654;52.216;5.616;2023-04-05T00:53:15;102320.66;;;1.05;73.28
71805;BME280;59654;52.216;5.616;2023-04-05T00:53:46;102317.09;;;1.03;73.81
71805;BME280;59654;52.216;5.616;2023-04-05T00:54:17;102320.53;;;1.01;74.22
71805;BME280;59654;52.216;5.616;2023-04-05T00:54:49;102310.88;;;1.00;74.58
71805;BME280;59654;52.216;5.616;2023-04-05T00:55:21;102323.06;;;0.98;75.22
71805;BME280;59654;52.216;5.616;2023-04-05T00:55:52;102316.03;;;0.97;75.47
71805;BME280;59654;52.216;5.616;2023-04-05T00:56:24;102309.03;;;0.96;75.32
71805;BME280;59654;52.216;5.616;2023-04-05T00:56:58;102312.56;;;0.98;75.20
71805;BME280;59654;52.216;5.616;2023-04-05T00:57:30;102318.66;;;0.97;75.40
71805;BME280;59654;52.216;5.616;2023-04-05T00:58:01;102315.16;;;0.96;75.42
71805;BME280;59654;52.216;5.616;2023-04-05T00:58:32;102320.41;;;0.96;75.67
71805;BME280;59654;52.216;5.616;2023-04-05T00:59:03;102317.78;;;0.96;75.47
71805;BME280;59654;52.216;5.616;2023-04-05T00:59:34;102323.91;;;0.97;75.87
71805;BME280;59654;52.216;5.616;2023-04-05T01:00:06;102325.66;;;0.96;75.80
71805;BME280;59654;52.216;5.616;2023-04-05T01:01:02;102324.78;;;0.96;75.19
71805;BME280;59654;52.216;5.616;2023-04-05T01:01:38;102321.13;;;0.91;75.23
71805;BME280;59654;52.216;5.616;2023-04-05T01:02:27;102321.09;;;0.88;75.16
71805;BME280;59654;52.216;5.616;2023-04-05T01:03:03;102315.72;;;0.83;75.32
71805;BME280;59654;52.216;5.616;2023-04-05T01:03:36;102316.50;;;0.80;75.20
71805;BME280;59654;52.216;5.616;2023-04-05T01:04:08;102322.59;;;0.79;75.10
71805;BME280;59654;52.216;5.616;2023-04-05T01:04:43;102312.03;;;0.76;75.42
71805;BME280;59654;52.216;5.616;2023-04-05T01:07:24;102320.53;;;0.66;76.64
71805;BME280;59654;52.216;5.616;2023-04-05T01:09:58;102308.34;;;0.68;76.21
71805;BME280;59654;52.216;5.616;2023-04-05T01:10:34;102315.31;;;0.68;75.99
71805;BME280;59654;52.216;5.616;2023-04-05T01:11:09;102303.03;;;0.67;75.96
71805;BME280;59654;52.216;5.616;2023-04-05T01:11:41;102298.63;;;0.66;76.29
71805;BME280;59654;52.216;5.616;2023-04-05T01:12:17;102305.63;;;0.65;76.33
71805;BME280;59654;52.216;5.616;2023-04-05T01:12:49;102309.97;;;0.65;76.71
71805;BME280;59654;52.216;5.616;2023-04-05T01:13:20;102309.97;;;0.65;77.10
71805;BME280;59654;52.216;5.616;2023-04-05T01:13:57;102308.25;;;0.65;77.15
71805;BME280;59654;52.216;5.616;2023-04-05T01:14:41;102311.81;;;0.67;77.47
71805;BME280;59654;52.216;5.616;2023-04-05T01:15:14;102309.94;;;0.63;77.55
71805;BME280;59654;52.216;5.616;2023-04-05T01:15:44;102307.31;;;0.63;77.53
71805;BME280;59654;52.216;5.616;2023-04-05T01:16:15;102303.75;;;0.61;77.75
71805;BME280;59654;52.216;5.616;2023-04-05T01:16:47;102303.72;;;0.60;78.08
71805;BME280;59654;52.216;5.616;2023-04-05T01:17:29;102303.66;;;0.58;78.27
71805;BME280;59654;52.216;5.616;2023-04-05T01:18:06;102307.97;;;0.55;78.31
71805;BME280;59654;52.216;5.616;2023-04-05T01:18:40;102305.31;;;0.53;77.97
71805;BME280;59654;52.216;5.616;2023-04-05T01:19:17;102300.03;;;0.51;78.52
71805;BME280;59654;52.216;5.616;2023-04-05T01:19:51;102307.84;;;0.50;77.92
71805;BME280;59654;52.216;5.616;2023-04-05T01:20:23;102302.56;;;0.48;77.58
71805;BME280;59654;52.216;5.616;2023-04-05T01:23:16;102309.34;;;0.40;78.25
71805;BME280;59654;52.216;5.616;2023-04-05T01:26:16;102295.13;;;0.32;79.66
71805;BME280;59654;52.216;5.616;2023-04-05T01:30:39;102298.53;;;0.30;80.61
71805;BME280;59654;52.216;5.616;2023-04-05T01:31:36;102301.13;;;0.28;80.83
71805;BME280;59654;52.216;5.616;2023-04-05T01:33:57;102299.31;;;0.26;80.69
71805;BME280;59654;52.216;5.616;2023-04-05T01:35:51;102289.59;;;0.22;81.21
71805;BME280;59654;52.216;5.616;2023-04-05T01:36:49;102290.41;;;0.19;81.54
71805;BME280;59654;52.216;5.616;2023-04-05T01:37:26;102294.75;;;0.19;81.94
71805;BME280;59654;52.216;5.616;2023-04-05T01:38:04;102296.50;;;0.18;82.00
71805;BME280;59654;52.216;5.616;2023-04-05T01:38:39;102292.09;;;0.17;81.68
71805;BME280;59654;52.216;5.616;2023-04-05T01:39:14;102288.53;;;0.15;81.63
71805;BME280;59654;52.216;5.616;2023-04-05T01:39:48;102291.16;;;0.15;82.20
71805;BME280;59654;52.216;5.616;2023-04-05T01:40:21;102289.41;;;0.15;82.17
71805;BME280;59654;52.216;5.616;2023-04-05T01:40:53;102290.25;;;0.14;82.19
71805;BME280;59654;52.216;5.616;2023-04-05T01:41:24;102288.47;;;0.13;82.91
71805;BME280;59654;52.216;5.616;2023-04-05T01:41:59;102287.59;;;0.13;82.65
71805;BME280;59654;52.216;5.616;2023-04-05T01:42:30;102286.66;;;0.11;82.41
71805;BME280;59654;52.216;5.616;2023-04-05T01:43:01;102288.41;;;0.10;82.09
71805;BME280;59654;52.216;5.616;2023-04-05T01:43:32;102283.09;;;0.09;82.00
71805;BME280;59654;52.216;5.616;2023-04-05T01:44:05;102283.09;;;0.07;82.59
71805;BME280;59654;52.216;5.616;2023-04-05T01:44:36;102286.56;;;0.06;82.49
71805;BME280;59654;52.216;5.616;2023-04-05T01:45:08;102290.03;;;0.05;82.95
71805;BME280;59654;52.216;5.616;2023-04-05T01:45:40;102289.97;;;0.04;82.79
71805;BME280;59654;52.216;5.616;2023-04-05T01:46:12;102283.84;;;0.03;82.56
71805;BME280;59654;52.216;5.616;2023-04-05T01:46:44;102282.91;;;0.01;83.00
71805;BME280;59654;52.216;5.616;2023-04-05T01:47:16;102281.13;;;0.00;83.28
71805;BME280;59654;52.216;5.616;2023-04-05T01:47:47;102289.78;;;-0.02;83.11
71805;BME280;59654;52.216;5.616;2023-04-05T01:48:18;102287.16;;;-0.02;82.84
71805;BME280;59654;52.216;5.616;2023-04-05T01:48:49;102284.50;;;-0.04;83.00
71805;BME280;59654;52.216;5.616;2023-04-05T01:49:20;102288.84;;;-0.04;83.36
71805;BME280;59654;52.216;5.616;2023-04-05T01:49:51;102287.97;;;-0.05;83.59
71805;BME280;59654;52.216;5.616;2023-04-05T01:50:22;102285.28;;;-0.06;83.18
71805;BME280;59654;52.216;5.616;2023-04-05T01:50:53;102285.25;;;-0.09;84.03
71805;BME280;59654;52.216;5.616;2023-04-05T01:51:23;102287.03;;;-0.08;83.72
71805;BME280;59654;52.216;5.616;2023-04-05T01:51:55;102282.63;;;-0.09;84.04
71805;BME280;59654;52.216;5.616;2023-04-05T01:52:25;102281.72;;;-0.10;83.49
71805;BME280;59654;52.216;5.616;2023-04-05T01:52:56;102287.84;;;-0.09;83.26
71805;BME280;59654;52.216;5.616;2023-04-05T01:53:27;102286.94;;;-0.11;83.17
71805;BME280;59654;52.216;5.616;2023-04-05T01:53:58;102287.78;;;-0.12;82.99
71805;BME280;59654;52.216;5.616;2023-04-05T01:54:29;102287.81;;;-0.11;82.49
71805;BME280;59654;52.216;5.616;2023-04-05T01:54:59;102290.44;;;-0.11;82.53
71805;BME280;59654;52.216;5.616;2023-04-05T01:55:30;102281.63;;;-0.13;82.83
71805;BME280;59654;52.216;5.616;2023-04-05T01:56:01;102280.75;;;-0.13;82.85
71805;BME280;59654;52.216;5.616;2023-04-05T01:56:32;102283.38;;;-0.13;82.74
71805;BME280;59654;52.216;5.616;2023-04-05T01:57:04;102279.91;;;-0.12;82.92
71805;BME280;59654;52.216;5.616;2023-04-05T01:57:36;102279.84;;;-0.14;82.22
71805;BME280;59654;52.216;5.616;2023-04-05T01:58:07;102278.91;;;-0.16;82.65
71805;BME280;59654;52.216;5.616;2023-04-05T01:58:38;102280.66;;;-0.16;83.14
71805;BME280;59654;52.216;5.616;2023-04-05T01:59:09;102280.66;;;-0.16;82.76
71805;BME280;59654;52.216;5.616;2023-04-05T01:59:40;102280.59;;;-0.18;82.41
71805;BME280;59654;52.216;5.616;2023-04-05T02:00:11;102280.56;;;-0.20;83.68
71805;BME280;59654;52.216;5.616;2023-04-05T02:00:45;102284.03;;;-0.21;83.54
71805;BME280;59654;52.216;5.616;2023-04-05T02:01:16;102274.44;;;-0.20;83.05
71805;BME280;59654;52.216;5.616;2023-04-05T02:01:47;102281.41;;;-0.21;83.04
71805;BME280;59654;52.216;5.616;2023-04-05T02:02:17;102284.03;;;-0.21;83.11
71805;BME280;59654;52.216;5.616;2023-04-05T02:02:48;102283.13;;;-0.21;83.07
71805;BME280;59654;52.216;5.616;2023-04-05T02:03:19;102278.72;;;-0.22;83.04
71805;BME280;59654;52.216;5.616;2023-04-05T02:03:50;102277.00;;;-0.22;82.70
71805;BME280;59654;52.216;5.616;2023-04-05T02:04:22;102281.31;;;-0.24;82.80
71805;BME280;59654;52.216;5.616;2023-04-05T02:04:53;102280.44;;;-0.24;82.99
71805;BME280;59654;52.216;5.616;2023-04-05T02:05:24;102275.16;;;-0.26;82.95
71805;BME280;59654;52.216;5.616;2023-04-05T02:05:56;102276.00;;;-0.27;82.37
71805;BME280;59654;52.216;5.616;2023-04-05T02:06:27;102284.69;;;-0.28;82.42
71805;BME280;59654;52.216;5.616;2023-04-05T02:06:58;102282.09;;;-0.28;82.48
71805;BME280;59654;52.216;5.616;2023-04-05T02:07:29;102273.28;;;-0.30;81.77
71805;BME280;59654;52.216;5.616;2023-04-05T02:08:00;102275.91;;;-0.30;81.95
71805;BME280;59654;52.216;5.616;2023-04-05T02:08:31;102271.50;;;-0.31;82.28
71805;BME280;59654;52.216;5.616;2023-04-05T02:09:02;102274.97;;;-0.32;82.44
71805;BME280;59654;52.216;5.616;2023-04-05T02:09:33;102276.69;;;-0.32;82.87
71805;BME280;59654;52.216;5.616;2023-04-05T02:10:04;102274.88;;;-0.35;82.90
71805;BME280;59654;52.216;5.616;2023-04-05T02:10:35;102262.63;;;-0.36;83.16
71805;BME280;59654;52.216;5.616;2023-04-05T02:11:06;102266.06;;;-0.37;83.53
71805;BME280;59654;52.216;5.616;2023-04-05T02:11:37;102266.03;;;-0.38;83.79
71805;BME280;59654;52.216;5.616;2023-04-05T02:12:08;102273.00;;;-0.39;83.89
71805;BME280;59654;52.216;5.616;2023-04-05T02:12:39;102263.34;;;-0.40;84.16
71805;BME280;59654;52.216;5.616;2023-04-05T02:13:10;102265.97;;;-0.41;84.25
71805;BME280;59654;52.216;5.616;2023-04-05T02:13:41;102261.63;;;-0.41;84.39
71805;BME280;59654;52.216;5.616;2023-04-05T02:14:12;102271.16;;;-0.43;84.59
71805;BME280;59654;52.216;5.616;2023-04-05T02:14:44;102272.94;;;-0.42;84.69
71805;BME280;59654;52.216;5.616;2023-04-05T02:15:15;102268.53;;;-0.43;84.60
71805;BME280;59654;52.216;5.616;2023-04-05T02:15:49;102262.34;;;-0.45;84.55
71805;BME280;59654;52.216;5.616;2023-04-05T02:16:20;102259.75;;;-0.45;85.11
71805;BME280;59654;52.216;5.616;2023-04-05T02:16:52;102251.88;;;-0.45;85.04
71805;BME280;59654;52.216;5.616;2023-04-05T02:17:25;102264.97;;;-0.45;85.12
71805;BME280;59654;52.216;5.616;2023-04-05T02:18:04;102262.31;;;-0.46;85.30
71805;BME280;59654;52.216;5.616;2023-04-05T02:18:35;102261.41;;;-0.47;85.18
71805;BME280;59654;52.216;5.616;2023-04-05T02:19:08;102258.75;;;-0.48;85.52
71805;BME280;59654;52.216;5.616;2023-04-05T02:19:39;102261.38;;;-0.48;85.22
71805;BME280;59654;52.216;5.616;2023-04-05T02:20:15;102256.97;;;-0.49;85.27
71805;BME280;59654;52.216;5.616;2023-04-05T02:20:49;102264.84;;;-0.49;85.10
71805;BME280;59654;52.216;5.616;2023-04-05T02:21:20;102260.44;;;-0.50;84.90
71805;BME280;59654;52.216;5.616;2023-04-05T02:21:52;102256.94;;;-0.51;85.19
71805;BME280;59654;52.216;5.616;2023-04-05T02:22:26;102260.38;;;-0.52;85.18
71805;BME280;59654;52.216;5.616;2023-04-05T02:22:58;102257.72;;;-0.54;85.12
71805;BME280;59654;52.216;5.616;2023-04-05T02:23:33;102256.81;;;-0.54;85.61
71805;BME280;59654;52.216;5.616;2023-04-05T02:24:04;102260.28;;;-0.55;85.40
71805;BME280;59654;52.216;5.616;2023-04-05T02:24:35;102254.16;;;-0.56;85.69
71805;BME280;59654;52.216;5.616;2023-04-05T02:25:07;102258.50;;;-0.56;85.56
71805;BME280;59654;52.216;5.616;2023-04-05T02:25:40;102262.88;;;-0.57;85.80
71805;BME280;59654;52.216;5.616;2023-04-05T02:26:11;102264.63;;;-0.57;85.83
71805;BME280;59654;52.216;5.616;2023-04-05T02:26:42;102257.59;;;-0.58;85.97
71805;BME280;59654;52.216;5.616;2023-04-05T02:27:13;102268.91;;;-0.59;86.22
71805;BME280;59654;52.216;5.616;2023-04-05T02:27:43;102254.88;;;-0.61;85.99
71805;BME280;59654;52.216;5.616;2023-04-05T02:28:14;102256.66;;;-0.60;85.56
71805;BME280;59654;52.216;5.616;2023-04-05T02:28:46;102262.75;;;-0.61;85.58
71805;BME280;59654;52.216;5.616;2023-04-05T02:29:18;102255.72;;;-0.62;85.85
71805;BME280;59654;52.216;5.616;2023-04-05T02:29:48;102260.06;;;-0.63;85.61
71805;BME280;59654;52.216;5.616;2023-04-05T02:30:19;102263.59;;;-0.62;85.51
71805;BME280;59654;52.216;5.616;2023-04-05T02:30:50;102260.03;;;-0.64;85.94
71805;BME280;59654;52.216;5.616;2023-04-05T02:31:21;102260.81;;;-0.67;86.28
71805;BME280;59654;52.216;5.616;2023-04-05T02:31:52;102261.69;;;-0.66;85.73
71805;BME280;59654;52.216;5.616;2023-04-05T02:32:24;102258.16;;;-0.68;86.20
71805;BME280;59654;52.216;5.616;2023-04-05T02:32:55;102259.00;;;-0.69;86.18
71805;BME280;59654;52.216;5.616;2023-04-05T02:33:26;102259.78;;;-0.72;85.75
71805;BME280;59654;52.216;5.616;2023-04-05T02:33:58;102258.94;;;-0.71;85.81
71805;BME280;59654;52.216;5.616;2023-04-05T02:34:30;102251.09;;;-0.71;85.88
71805;BME280;59654;52.216;5.616;2023-04-05T02:35:02;102260.72;;;-0.70;85.83
71805;BME280;59654;52.216;5.616;2023-04-05T02:35:33;102265.06;;;-0.70;85.50
71805;BME280;59654;52.216;5.616;2023-04-05T02:36:05;102248.47;;;-0.71;85.53
71805;BME280;59654;52.216;5.616;2023-04-05T02:36:37;102256.31;;;-0.71;85.97
71805;BME280;59654;52.216;5.616;2023-04-05T02:37:08;102250.19;;;-0.71;85.45
71805;BME280;59654;52.216;5.616;2023-04-05T02:37:39;102246.72;;;-0.70;85.19
71805;BME280;59654;52.216;5.616;2023-04-05T02:38:11;102258.03;;;-0.71;85.15
71805;BME280;59654;52.216;5.616;2023-04-05T02:38:42;102260.66;;;-0.73;84.74
71805;BME280;59654;52.216;5.616;2023-04-05T02:39:13;102253.63;;;-0.74;84.83
71805;BME280;59654;52.216;5.616;2023-04-05T02:39:44;102255.38;;;-0.74;84.63
71805;BME280;59654;52.216;5.616;2023-04-05T02:40:16;102257.97;;;-0.74;84.42
71805;BME280;59654;52.216;5.616;2023-04-05T02:40:48;102255.38;;;-0.74;84.25
71805;BME280;59654;52.216;5.616;2023-04-05T02:41:18;102255.31;;;-0.76;84.29
71805;BME280;59654;52.216;5.616;2023-04-05T02:41:51;102246.56;;;-0.76;84.08
71805;BME280;59654;52.216;5.616;2023-04-05T02:42:22;102251.81;;;-0.76;84.54
71805;BME280;59654;52.216;5.616;2023-04-05T02:42:54;102247.41;;;-0.77;84.02
71805;BME280;59654;52.216;5.616;2023-04-05T02:43:25;102246.53;;;-0.78;84.23
71805;BME280;59654;52.216;5.616;2023-04-05T02:43:56;102252.59;;;-0.79;84.14
71805;BME280;59654;52.216;5.616;2023-04-05T02:44:28;102260.41;;;-0.80;84.17
71805;BME280;59654;52.216;5.616;2023-04-05T02:44:59;102242.06;;;-0.80;84.27
71805;BME280;59654;52.216;5.616;2023-04-05T02:45:30;102257.78;;;-0.80;84.12
71805;BME280;59654;52.216;5.616;2023-04-05T02:46:03;102255.16;;;-0.80;83.88
71805;BME280;59654;52.216;5.616;2023-04-05T02:46:35;102249.03;;;-0.81;83.91
71805;BME280;59654;52.216;5.616;2023-04-05T02:47:06;102253.38;;;-0.81;84.31
71805;BME280;59654;52.216;5.616;2023-04-05T02:47:37;102260.34;;;-0.82;84.25
71805;BME280;59654;52.216;5.616;2023-04-05T02:48:08;102249.88;;;-0.82;84.22
71805;BME280;59654;52.216;5.616;2023-04-05T02:48:39;102254.22;;;-0.82;84.23
71805;BME280;59654;52.216;5.616;2023-04-05T02:49:10;102254.22;;;-0.82;84.53
71805;BME280;59654;52.216;5.616;2023-04-05T02:49:41;102249.88;;;-0.82;85.00
71805;BME280;59654;52.216;5.616;2023-04-05T02:50:13;102252.50;;;-0.82;84.71
71805;BME280;59654;52.216;5.616;2023-04-05T02:50:49;102254.22;;;-0.82;84.94
71805;BME280;59654;52.216;5.616;2023-04-05T02:51:21;102246.38;;;-0.82;85.15
71805;BME280;59654;52.216;5.616;2023-04-05T02:51:52;102259.47;;;-0.82;85.01
71805;BME280;59654;52.216;5.616;2023-04-05T02:52:23;102246.31;;;-0.84;84.93
71805;BME280;59654;52.216;5.616;2023-04-05T02:52:54;102251.59;;;-0.82;85.00
71805;BME280;59654;52.216;5.616;2023-04-05T02:53:25;102247.22;;;-0.83;84.78
71805;BME280;59654;52.216;5.616;2023-04-05T02:54:02;102250.66;;;-0.84;84.78
71805;BME280;59654;52.216;5.616;2023-04-05T02:54:35;102246.28;;;-0.85;85.32
71805;BME280;59654;52.216;5.616;2023-04-05T02:55:07;102248.88;;;-0.85;84.95
71805;BME280;59654;52.216;5.616;2023-04-05T02:55:38;102248.00;;;-0.86;85.39
71805;BME280;59654;52.216;5.616;2023-04-05T02:56:11;102252.34;;;-0.86;85.68
71805;BME280;59654;52.216;5.616;2023-04-05T02:56:46;102248.84;;;-0.87;85.86
71805;BME280;59654;52.216;5.616;2023-04-05T02:57:20;102251.44;;;-0.87;85.81
71805;BME280;59654;52.216;5.616;2023-04-05T02:57:59;102249.69;;;-0.88;84.94
71805;BME280;59654;52.216;5.616;2023-04-05T02:58:37;102247.94;;;-0.88;85.50
71805;BME280;59654;52.216;5.616;2023-04-05T02:59:09;102253.19;;;-0.88;85.44
71805;BME280;59654;52.216;5.616;2023-04-05T02:59:40;102246.22;;;-0.87;85.44
71805;BME280;59654;52.216;5.616;2023-04-05T03:00:12;102251.44;;;-0.87;85.43
71805;BME280;59654;52.216;5.616;2023-04-05T03:00:46;102245.31;;;-0.88;85.41
71805;BME280;59654;52.216;5.616;2023-04-05T03:01:22;102243.53;;;-0.89;85.16
71805;BME280;59654;52.216;5.616;2023-04-05T03:01:53;102252.28;;;-0.90;85.58
71805;BME280;59654;52.216;5.616;2023-04-05T03:02:29;102247.03;;;-0.90;85.89
71805;BME280;59654;52.216;5.616;2023-04-05T03:03:00;102249.69;;;-0.88;85.93
71805;BME280;59654;52.216;5.616;2023-04-05T03:03:32;102253.16;;;-0.89;85.87
71805;BME280;59654;52.216;5.616;2023-04-05T03:04:07;102245.25;;;-0.91;85.91
71805;BME280;59654;52.216;5.616;2023-04-05T03:04:38;102246.16;;;-0.90;85.62
71805;BME280;59654;52.216;5.616;2023-04-05T03:05:10;102252.28;;;-0.90;85.80
71805;BME280;59654;52.216;5.616;2023-04-05T03:05:44;102244.41;;;-0.90;85.71
71805;BME280;59654;52.216;5.616;2023-04-05T03:06:18;102242.69;;;-0.89;85.72